Overview Statistics Trail Chart Weather Telemetry Raw packets
 

This is the latest recevied weather packets stored in our database for station/object EA7URS-13. If no packets are shown the sender has not sent any weather packets the latest 10 day(s).

<< 79 80 81 82 83 84 85 >>
Time Temp. Humidity Pressure Rain* Wind** Luminosity Snow
1788083850 28.33° C 40% 1010.8 hPa 0 mm - 523 W/m² -
1788083548 28.33° C 40% 1010.8 hPa 0 mm - 523 W/m² -
1788083247 27.22° C 41% 1011.2 hPa 0 mm - 195 W/m² -
1788082946 27.22° C 41% 1011.2 hPa 0 mm - 195 W/m² -
1788082645 27.78° C 41% 1011.1 hPa 0 mm - 480 W/m² -
1788082344 27.78° C 41% 1011.1 hPa 0 mm - 480 W/m² -
1788082043 26.67° C 44% 1011.1 hPa 0 mm - 455 W/m² -
1788081742 26.67° C 44% 1011.1 hPa 0 mm - 455 W/m² -
1788081441 26.11° C 45% 1011.2 hPa 0 mm - 427 W/m² -
1788081139 26.11° C 45% 1011.2 hPa 0 mm - 427 W/m² -
1788080839 25.56° C 47% 1010.9 hPa 0 mm - 399 W/m² -
1788080537 25.56° C 47% 1010.9 hPa 0 mm - 399 W/m² -
1788080236 25.56° C 47% 1010.9 hPa 0 mm - 399 W/m² -
1788079934 25° C 48% 1010.9 hPa 0 mm - 372 W/m² -
1788079633 25° C 48% 1010.9 hPa 0 mm - 372 W/m² -
1788079332 25° C 50% 1010.9 hPa 0 mm - 343 W/m² -
1788079031 25° C 50% 1010.9 hPa 0 mm - 343 W/m² -
1788078730 25° C 50% 1010.8 hPa 0 mm - 313 W/m² -
1788078429 25° C 50% 1010.8 hPa 0 mm - 313 W/m² -
1788078128 25° C 49% 1010.7 hPa 0 mm - 285 W/m² -
1788077827 25° C 49% 1010.7 hPa 0 mm - 285 W/m² -
1788077526 24.44° C 50% 1011.1 hPa 0 mm - 256 W/m² -
1788077225 24.44° C 50% 1011.1 hPa 0 mm - 256 W/m² -
1788076923 23.33° C 54% 1011 hPa 0 mm - 224 W/m² -
1788076622 23.33° C 54% 1011 hPa 0 mm - 224 W/m² -

* Rain latest hour (hover to see other rain measurements)
** Current wind speed in m/s (hover to see current wind gust speed)